Time;durP1;ratioP1;P1;durP2;ratioP2;P2;SDS_P1;SDS_P2;PMS_P1;PMS_P2;Temp;Humidity;BMP_temperature;BMP_pressure;BME280_temperature;BME280_humidity;BME280_pressure;Samples;Min_cycle;Max_cycle;Signal;HPM_P1;HPM_P2
2022/01/20 00:03:18;;;;;;;7.55;1.40;;;5.40;76.30;;;;;;6159772;23;20025;-76
2022/01/20 00:06:36;;;;;;;8.52;1.77;;;5.30;76.20;;;;;;6185603;23;20056;-76
2022/01/20 00:27:56;;;;;;;9.40;1.33;;;5.20;76.50;;;;;;6067585;23;20022;-76
2022/01/20 00:30:39;;;;;;;9.48;1.77;;;5.20;76.60;;;;;;6043357;23;20054;-76
2022/01/20 00:38:21;;;;;;;14.50;1.35;;;5.20;77.00;;;;;;6010210;23;20472;-77
2022/01/20 00:40:46;;;;;;;9.38;1.60;;;5.20;77.10;;;;;;5986684;23;20015;-77
2022/01/20 00:43:13;;;;;;;11.02;1.70;;;5.20;77.00;;;;;;6010582;23;20507;-77
2022/01/20 00:45:39;;;;;;;9.20;1.50;;;5.20;77.00;;;;;;6010718;23;20471;-76
2022/01/20 00:48:05;;;;;;;12.02;1.77;;;5.20;76.90;;;;;;6010527;23;20019;-77
2022/01/20 00:50:30;;;;;;;10.40;1.85;;;5.20;76.90;;;;;;5995597;23;20203;-76
2022/01/20 00:52:56;;;;;;;12.65;2.22;;;5.10;76.80;;;;;;6014975;23;20451;-76
2022/01/20 00:55:22;;;;;;;10.27;2.05;;;5.10;76.80;;;;;;6029791;23;20018;-76
2022/01/20 00:57:47;;;;;;;7.70;1.77;;;5.10;76.90;;;;;;6122801;23;20032;-77
2022/01/20 01:00:14;;;;;;;11.95;1.70;;;5.10;77.00;;;;;;6125790;23;20315;-76
2022/01/20 01:02:41;;;;;;;12.73;2.10;;;5.10;77.10;;;;;;6100822;23;20447;-76
2022/01/20 01:05:09;;;;;;;10.18;1.70;;;5.10;77.30;;;;;;6125463;23;20037;-77
2022/01/20 01:10:00;;;;;;;12.25;2.13;;;5.10;77.50;;;;;;6096702;23;20901;-76
2022/01/20 01:12:38;;;;;;;10.82;2.03;;;5.10;77.60;;;;;;6096116;23;20058;-75
2022/01/20 01:15:10;;;;;;;11.57;2.25;;;5.10;77.70;;;;;;6151338;23;20020;-76
2022/01/20 01:20:22;;;;;;;7.10;0.80;;;5.20;77.70;;;;;;6231321;23;20024;-75
2022/01/20 01:22:48;;;;;;;5.78;0.88;;;5.10;77.50;;;;;;6257159;23;20024;-76
2022/01/20 01:25:15;;;;;;;3.97;0.93;;;5.10;77.30;;;;;;6248666;23;20393;-76
2022/01/20 01:27:43;;;;;;;4.75;1.00;;;5.20;77.30;;;;;;6220947;23;20026;-76
2022/01/20 01:32:55;;;;;;;5.32;0.80;;;5.10;77.00;;;;;;6220630;23;20021;-76
2022/01/20 01:35:23;;;;;;;7.90;0.90;;;5.10;76.80;;;;;;6220299;23;20422;-76
2022/01/20 01:40:32;;;;;;;5.50;0.60;;;5.10;76.60;;;;;;6220177;23;20440;-76
2022/01/20 01:43:02;;;;;;;6.90;1.00;;;5.10;76.60;;;;;;6220435;23;20016;-76
2022/01/20 01:45:33;;;;;;;9.55;1.35;;;5.10;76.70;;;;;;6247386;23;20058;-76
2022/01/20 01:47:59;;;;;;;6.22;1.08;;;5.20;76.70;;;;;;6220509;23;20020;-76
2022/01/20 01:50:26;;;;;;;4.90;1.40;;;5.10;76.70;;;;;;6247048;23;20428;-76
2022/01/20 01:52:53;;;;;;;7.97;1.40;;;5.10;76.50;;;;;;6220382;23;20352;-76
2022/01/20 01:55:19;;;;;;;6.43;1.45;;;5.10;76.50;;;;;;6246960;23;20027;-77
2022/01/20 01:57:45;;;;;;;6.22;1.58;;;5.10;76.50;;;;;;6247214;23;20352;-76
2022/01/20 02:00:12;;;;;;;7.85;1.73;;;5.10;76.50;;;;;;6247122;23;20019;-76
2022/01/20 02:02:38;;;;;;;7.07;1.70;;;5.10;76.60;;;;;;6220529;23;20055;-76
2022/01/20 02:05:05;;;;;;;12.98;3.10;;;5.10;76.60;;;;;;6245431;23;20019;-76
2022/01/20 02:08:13;;;;;;;12.02;2.80;;;5.10;76.70;;;;;;6220129;22;20020;-76
2022/01/20 02:18:50;;;;;;;6.82;3.15;;;5.10;76.90;;;;;;6277727;22;20016;-76
2022/01/20 02:21:17;;;;;;;8.50;3.10;;;5.10;76.90;;;;;;6277482;22;20041;-76
2022/01/20 02:23:45;;;;;;;10.75;4.13;;;5.20;77.00;;;;;;6277882;22;20082;-76
2022/01/20 02:26:10;;;;;;;15.57;6.45;;;5.20;76.90;;;;;;6277674;22;20012;-77
2022/01/20 02:28:36;;;;;;;10.40;5.05;;;5.20;76.80;;;;;;6249840;22;20035;-76
2022/01/20 02:31:02;;;;;;;8.43;2.53;;;5.20;76.80;;;;;;6249890;22;20027;-76
2022/01/20 02:33:30;;;;;;;7.75;1.48;;;5.20;76.70;;;;;;6275929;22;20443;-76
2022/01/20 02:36:09;;;;;;;4.30;1.08;;;5.20;76.70;;;;;;6277304;22;20494;-75
2022/01/20 02:38:42;;;;;;;6.63;1.40;;;5.20;76.50;;;;;;6277255;22;20062;-77
2022/01/20 02:46:38;;;;;;;4.03;1.55;;;5.20;76.30;;;;;;6277496;22;20022;-77
2022/01/20 02:49:07;;;;;;;5.90;1.45;;;5.20;76.30;;;;;;6277175;22;20095;-77
2022/01/20 02:51:33;;;;;;;7.10;1.02;;;5.20;76.30;;;;;;6277467;22;20015;-77
2022/01/20 02:53:59;;;;;;;8.48;1.27;;;5.20;76.20;;;;;;6277517;22;20428;-76
2022/01/20 02:56:26;;;;;;;15.00;2.17;;;5.20;76.30;;;;;;6250140;22;20011;-77
2022/01/20 02:58:51;;;;;;;8.90;1.80;;;5.20;76.40;;;;;;6249643;22;20026;-75
2022/01/20 03:01:17;;;;;;;9.60;1.60;;;5.20;76.10;;;;;;6277500;22;20020;-77
2022/01/20 03:03:43;;;;;;;7.88;1.40;;;5.20;76.20;;;;;;6277634;22;20435;-78
2022/01/20 03:06:09;;;;;;;6.93;1.88;;;5.20;76.70;;;;;;6277298;22;20024;-77
2022/01/20 03:08:34;;;;;;;8.38;1.55;;;5.20;76.40;;;;;;6276779;22;20022;-76
2022/01/20 03:11:00;;;;;;;9.32;1.40;;;5.20;76.30;;;;;;6276679;22;20021;-77
2022/01/20 03:13:26;;;;;;;8.15;1.58;;;5.20;76.30;;;;;;6277153;22;20023;-76
2022/01/20 03:15:53;;;;;;;11.93;2.70;;;5.20;76.40;;;;;;6249908;22;20019;-77
2022/01/20 03:18:18;;;;;;;8.32;1.60;;;5.20;76.40;;;;;;6250081;22;20012;-77
2022/01/20 03:20:44;;;;;;;8.45;1.27;;;5.30;76.90;;;;;;6224532;22;20374;-76
2022/01/20 03:23:10;;;;;;;17.23;2.90;;;5.20;76.30;;;;;;6250327;22;20031;-76
2022/01/20 03:25:35;;;;;;;10.00;2.38;;;5.20;76.40;;;;;;6277648;22;20315;-77
2022/01/20 03:28:01;;;;;;;14.82;2.20;;;5.30;76.50;;;;;;6277682;22;20090;-76
2022/01/20 03:30:27;;;;;;;12.13;2.28;;;5.20;76.40;;;;;;6279060;22;20069;-76
2022/01/20 03:32:53;;;;;;;10.98;1.58;;;5.20;76.40;;;;;;6251630;22;20447;-77
2022/01/20 03:35:20;;;;;;;14.98;2.92;;;5.30;76.50;;;;;;6252258;22;20055;-77
2022/01/20 03:37:46;;;;;;;20.00;3.53;;;5.30;76.50;;;;;;6279059;22;20012;-76
2022/01/20 03:40:12;;;;;;;15.68;3.42;;;5.20;76.40;;;;;;6279601;22;20016;-76
2022/01/20 03:42:37;;;;;;;14.02;2.70;;;5.30;76.30;;;;;;6279352;22;20050;-76
2022/01/20 03:45:04;;;;;;;18.20;2.97;;;5.20;75.80;;;;;;6252254;22;20038;-77
2022/01/20 03:47:30;;;;;;;14.80;2.60;;;5.20;75.50;;;;;;6279188;22;20042;-77
2022/01/20 03:52:24;;;;;;;26.02;4.15;;;5.20;75.10;;;;;;6279090;22;20066;-77
2022/01/20 03:54:50;;;;;;;20.75;3.90;;;5.10;74.70;;;;;;6279526;22;20020;-77
2022/01/20 03:57:16;;;;;;;23.58;3.25;;;5.10;74.30;;;;;;6278810;22;20019;-77
2022/01/20 03:59:41;;;;;;;21.75;3.90;;;5.10;73.70;;;;;;6278755;22;20008;-77
2022/01/20 04:02:07;;;;;;;20.55;3.42;;;5.10;73.50;;;;;;6279546;22;20019;-77
2022/01/20 04:04:33;;;;;;;21.17;4.93;;;5.00;73.40;;;;;;6251143;22;20330;-77
2022/01/20 04:06:58;;;;;;;21.35;4.45;;;5.00;73.20;;;;;;6279179;22;20008;-77
2022/01/20 04:09:24;;;;;;;17.75;2.72;;;5.00;73.10;;;;;;6226440;22;20018;-77
2022/01/20 04:11:51;;;;;;;21.75;3.83;;;5.00;73.10;;;;;;6251117;22;20023;-77
2022/01/20 04:14:17;;;;;;;24.73;4.57;;;5.00;72.90;;;;;;6251786;22;20343;-77
2022/01/20 04:17:03;;;;;;;15.75;3.42;;;5.00;72.50;;;;;;6279353;22;20016;-77
2022/01/20 04:19:32;;;;;;;22.65;3.47;;;5.00;72.30;;;;;;6279121;22;20091;-77
2022/01/20 04:22:00;;;;;;;14.50;3.50;;;5.00;72.00;;;;;;6278895;22;20435;-77
2022/01/20 04:24:26;;;;;;;18.13;3.20;;;5.00;72.10;;;;;;6279016;22;20011;-77
2022/01/20 04:26:51;;;;;;;17.70;2.75;;;5.00;72.00;;;;;;6251360;22;20465;-77
2022/01/20 04:29:17;;;;;;;14.88;3.28;;;5.00;71.80;;;;;;6251655;22;20007;-77
2022/01/20 04:31:44;;;;;;;16.65;3.30;;;5.00;71.40;;;;;;6279032;22;20037;-76
2022/01/20 04:34:10;;;;;;;19.27;3.83;;;4.90;71.10;;;;;;6278836;22;20012;-77
2022/01/20 04:36:40;;;;;;;19.85;3.03;;;5.30;71.00;;;;;;6278810;22;20042;-77
2022/01/20 04:39:10;;;;;;;16.48;3.42;;;4.90;70.80;;;;;;6278521;22;20020;-77
2022/01/20 04:41:35;;;;;;;15.68;2.90;;;4.90;70.70;;;;;;6250680;22;20011;-77
2022/01/20 04:44:02;;;;;;;12.40;2.85;;;4.90;70.60;;;;;;6251028;22;20458;-77
2022/01/20 04:46:42;;;;;;;12.82;2.60;;;4.90;70.50;;;;;;6278224;22;20069;-77
2022/01/20 04:59:29;;;;;;;9.38;2.58;;;4.80;69.80;;;;;;6278830;22;20027;-77
2022/01/20 05:01:55;;;;;;;10.68;2.80;;;4.80;69.30;;;;;;6276944;22;20026;-77
2022/01/20 05:04:22;;;;;;;13.93;2.78;;;4.80;69.30;;;;;;6278517;22;20011;-78
2022/01/20 05:06:49;;;;;;;14.73;3.30;;;4.80;68.20;;;;;;6278276;22;20011;-76
2022/01/20 05:09:19;;;;;;;13.82;2.67;;;4.70;68.70;;;;;;6277845;22;20015;-77
2022/01/20 05:12:00;;;;;;;15.20;2.65;;;4.80;69.30;;;;;;6277896;22;20020;-77
2022/01/20 05:14:27;;;;;;;12.30;2.30;;;4.70;69.80;;;;;;6251359;22;20051;-77
2022/01/20 05:16:55;;;;;;;10.77;1.73;;;4.80;70.20;;;;;;6250791;22;20086;-77
2022/01/20 05:19:28;;;;;;;9.88;2.03;;;4.60;70.30;;;;;;6278436;22;20020;-77
2022/01/20 05:21:54;;;;;;;11.32;2.00;;;4.60;70.20;;;;;;6278054;22;20012;-77
2022/01/20 05:24:23;;;;;;;9.30;1.88;;;4.60;70.10;;;;;;6278334;22;20058;-77
2022/01/20 05:26:50;;;;;;;10.52;1.83;;;4.50;70.10;;;;;;6277973;22;20023;-77
2022/01/20 05:29:20;;;;;;;12.95;2.28;;;4.50;70.30;;;;;;6278375;22;20041;-77
2022/01/20 05:31:46;;;;;;;8.82;1.50;;;4.50;70.10;;;;;;6276717;22;20427;-77
2022/01/20 05:34:12;;;;;;;12.20;2.13;;;4.50;69.90;;;;;;6278365;22;20020;-77
2022/01/20 05:36:38;;;;;;;12.38;1.92;;;4.40;69.80;;;;;;6278443;22;20016;-77
2022/01/20 05:39:04;;;;;;;7.32;1.73;;;4.40;69.60;;;;;;6250260;22;20027;-78
2022/01/20 05:41:30;;;;;;;13.07;2.80;;;4.40;69.70;;;;;;6278555;22;20020;-77
2022/01/20 05:43:59;;;;;;;13.32;4.70;;;4.30;69.70;;;;;;6278246;22;20018;-77
2022/01/20 05:46:28;;;;;;;17.25;6.07;;;4.30;69.80;;;;;;6278960;22;20016;-76
2022/01/20 05:48:58;;;;;;;15.52;5.32;;;4.30;69.90;;;;;;6253690;22;20016;-78
2022/01/20 05:51:24;;;;;;;13.00;4.00;;;4.30;69.90;;;;;;6281444;22;20101;-77
2022/01/20 05:53:49;;;;;;;16.08;4.57;;;4.20;70.00;;;;;;6281997;22;20019;-77
2022/01/20 05:56:15;;;;;;;12.20;3.17;;;4.20;70.20;;;;;;6253752;22;20340;-77
2022/01/20 05:58:41;;;;;;;13.45;3.53;;;4.20;70.40;;;;;;6277786;22;20386;-77
2022/01/20 06:01:07;;;;;;;15.40;3.58;;;4.20;70.40;;;;;;6250297;22;20023;-82
2022/01/20 06:03:36;;;;;;;11.93;2.60;;;4.30;70.60;;;;;;6250912;22;20461;-78
2022/01/20 06:06:10;;;;;;;14.45;3.38;;;4.20;70.60;;;;;;6278339;22;20081;-77
2022/01/20 06:08:37;;;;;;;11.53;2.63;;;4.20;70.80;;;;;;6277763;22;20375;-77
2022/01/20 06:11:03;;;;;;;10.68;3.30;;;4.20;71.00;;;;;;6250091;22;20344;-78
2022/01/20 06:13:29;;;;;;;13.85;2.63;;;4.20;71.10;;;;;;6277851;22;20019;-78
2022/01/20 06:15:55;;;;;;;13.27;3.10;;;4.20;70.90;;;;;;6277482;22;20098;-78
2022/01/20 06:18:21;;;;;;;10.98;2.80;;;4.20;71.00;;;;;;6278300;22;20335;-78
2022/01/20 06:20:47;;;;;;;13.02;2.92;;;4.20;71.10;;;;;;6278037;22;20016;-78
2022/01/20 06:23:13;;;;;;;10.65;2.42;;;4.10;71.00;;;;;;6277635;22;20462;-78
2022/01/20 06:25:39;;;;;;;13.60;2.53;;;4.10;71.10;;;;;;6277623;22;20020;-77
2022/01/20 06:28:05;;;;;;;15.13;3.20;;;4.10;71.20;;;;;;6250642;22;20436;-78
2022/01/20 06:30:32;;;;;;;15.10;3.85;;;4.10;71.30;;;;;;6275456;22;20078;-78
2022/01/20 06:32:58;;;;;;;8.65;2.85;;;4.10;71.60;;;;;;6277545;22;20550;-78
2022/01/20 06:35:24;;;;;;;10.90;1.90;;;4.10;71.60;;;;;;6277768;22;20058;-77
2022/01/20 06:37:50;;;;;;;9.88;3.00;;;4.10;71.60;;;;;;6277307;22;20024;-76
2022/01/20 06:40:16;;;;;;;9.80;2.45;;;4.10;71.80;;;;;;6275972;22;20012;-78
2022/01/20 06:42:41;;;;;;;16.92;3.05;;;4.00;71.90;;;;;;6277177;22;20022;-79
2022/01/20 06:45:10;;;;;;;15.60;3.67;;;4.00;72.10;;;;;;6277507;22;20023;-79
2022/01/20 06:47:35;;;;;;;14.35;2.83;;;4.10;72.10;;;;;;6275923;22;20407;-78
2022/01/20 06:50:02;;;;;;;11.70;2.97;;;4.00;72.00;;;;;;6276245;22;20015;-78
2022/01/20 06:52:28;;;;;;;15.93;3.78;;;4.00;72.10;;;;;;6277196;22;20140;-79
2022/01/20 06:54:55;;;;;;;15.50;3.65;;;4.00;72.20;;;;;;6249678;22;20066;-79
2022/01/20 06:57:21;;;;;;;16.30;3.88;;;4.00;72.30;;;;;;6276926;22;20020;-79
2022/01/20 06:59:47;;;;;;;13.50;3.08;;;4.00;72.30;;;;;;6276939;22;20451;-80
2022/01/20 07:02:13;;;;;;;16.70;3.42;;;4.10;72.30;;;;;;6277331;22;20023;-79
2022/01/20 07:04:39;;;;;;;18.40;3.78;;;4.00;72.20;;;;;;6249600;22;20019;-78
2022/01/20 07:07:06;;;;;;;16.70;3.55;;;4.00;72.30;;;;;;6277079;22;20015;-78
2022/01/20 07:09:33;;;;;;;18.45;3.60;;;4.40;72.30;;;;;;6276320;22;20460;-79
2022/01/20 07:11:59;;;;;;;18.00;3.55;;;4.00;72.10;;;;;;6277097;22;20015;-80
2022/01/20 07:14:25;;;;;;;15.48;3.67;;;4.00;71.90;;;;;;6276998;22;20016;-82
2022/01/20 07:16:51;;;;;;;10.35;3.08;;;4.00;71.70;;;;;;6248689;22;20027;-81
2022/01/20 07:19:16;;;;;;;18.85;3.92;;;3.90;71.60;;;;;;6277531;22;20019;-79
2022/01/20 07:21:43;;;;;;;16.17;3.65;;;3.90;71.70;;;;;;6277090;22;20458;-79
2022/01/20 07:24:10;;;;;;;16.42;3.83;;;3.90;71.80;;;;;;6276801;22;20091;-79
2022/01/20 07:26:35;;;;;;;14.15;3.60;;;3.90;71.80;;;;;;6250257;22;20016;-79
2022/01/20 07:29:01;;;;;;;13.73;4.63;;;3.90;71.90;;;;;;6276447;22;20008;-78
2022/01/20 07:31:26;;;;;;;13.77;3.97;;;3.90;71.90;;;;;;6276971;22;20016;-79
2022/01/20 07:33:52;;;;;;;18.15;4.35;;;3.90;71.70;;;;;;6276670;22;20023;-79
2022/01/20 07:36:18;;;;;;;13.00;3.20;;;3.90;71.30;;;;;;6276889;22;20054;-80
2022/01/20 07:38:45;;;;;;;14.50;2.60;;;3.90;71.10;;;;;;6277320;22;20020;-80
2022/01/20 07:41:11;;;;;;;16.45;3.35;;;3.80;71.10;;;;;;6277742;22;20328;-80
2022/01/20 07:43:38;;;;;;;16.25;2.65;;;3.80;71.30;;;;;;6249939;22;20050;-80
2022/01/20 07:46:03;;;;;;;16.75;2.83;;;3.90;71.40;;;;;;6277550;22;20016;-81
2022/01/20 07:48:29;;;;;;;13.13;2.53;;;3.90;71.40;;;;;;6275916;22;20064;-81
2022/01/20 07:50:55;;;;;;;11.65;2.90;;;3.90;71.60;;;;;;6276305;22;20023;-81
2022/01/20 07:53:20;;;;;;;12.82;3.28;;;3.90;71.70;;;;;;6277122;22;20031;-78
2022/01/20 07:55:46;;;;;;;14.48;3.45;;;3.90;71.50;;;;;;6249823;22;20094;-79
2022/01/20 07:58:11;;;;;;;14.05;3.30;;;3.90;71.40;;;;;;6277324;22;20073;-78
2022/01/20 08:00:37;;;;;;;16.00;3.40;;;3.90;71.10;;;;;;6277543;22;20008;-79
2022/01/20 08:03:03;;;;;;;15.52;3.60;;;4.00;71.10;;;;;;6249809;22;20057;-79
2022/01/20 08:05:29;;;;;;;12.95;3.13;;;3.90;71.00;;;;;;6277192;22;20023;-79
2022/01/20 08:07:54;;;;;;;14.57;3.17;;;4.00;71.00;;;;;;6277112;22;20047;-79
2022/01/20 08:10:21;;;;;;;13.68;3.33;;;4.10;71.20;;;;;;6277453;22;20015;-79
2022/01/20 08:12:46;;;;;;;16.67;3.30;;;4.00;71.10;;;;;;6276555;22;20039;-78
2022/01/20 08:15:14;;;;;;;15.20;2.78;;;4.10;71.00;;;;;;6277186;22;20012;-79
2022/01/20 08:17:41;;;;;;;16.05;2.83;;;3.90;70.80;;;;;;6279127;22;20094;-79
2022/01/20 08:20:08;;;;;;;16.67;3.85;;;4.10;70.90;;;;;;6279483;22;20011;-79
2022/01/20 08:22:34;;;;;;;13.00;4.00;;;3.90;70.60;;;;;;6279282;22;20054;-79
2022/01/20 08:25:07;;;;;;;11.95;3.45;;;3.90;70.60;;;;;;6279194;22;20019;-79
2022/01/20 08:27:33;;;;;;;15.23;3.67;;;3.90;70.50;;;;;;6278950;22;20018;-79
2022/01/20 08:29:59;;;;;;;19.90;4.80;;;3.90;70.50;;;;;;6279067;22;20015;-79
2022/01/20 08:32:24;;;;;;;14.52;3.85;;;3.90;70.50;;;;;;6279075;22;20069;-79
2022/01/20 08:34:50;;;;;;;19.20;5.00;;;4.30;70.80;;;;;;6279204;22;20090;-79
2022/01/20 08:37:16;;;;;;;18.90;4.32;;;3.90;70.50;;;;;;6279135;22;20358;-79
2022/01/20 08:39:45;;;;;;;16.75;4.45;;;3.90;70.50;;;;;;6278406;22;20035;-79
2022/01/20 08:42:11;;;;;;;21.85;4.70;;;3.90;70.60;;;;;;6279001;22;20023;-79
2022/01/20 08:44:38;;;;;;;15.35;4.03;;;4.00;70.70;;;;;;6278771;22;20018;-79
2022/01/20 08:47:09;;;;;;;13.43;2.67;;;4.20;70.90;;;;;;6279235;22;20015;-79
2022/01/20 08:49:36;;;;;;;15.57;3.75;;;4.00;70.60;;;;;;6279047;22;20051;-79
2022/01/20 08:52:02;;;;;;;19.95;4.80;;;4.00;70.60;;;;;;6278988;22;20020;-79
2022/01/20 08:54:28;;;;;;;20.25;3.50;;;4.10;70.50;;;;;;6278376;22;20015;-79
2022/01/20 08:56:54;;;;;;;16.52;3.38;;;4.10;70.40;;;;;;6278339;22;20023;-79
2022/01/20 08:59:20;;;;;;;13.93;2.95;;;4.10;70.20;;;;;;6278454;22;20129;-80
2022/01/20 09:01:45;;;;;;;17.92;4.45;;;4.10;70.30;;;;;;6279029;22;20138;-79
2022/01/20 09:04:11;;;;;;;13.73;3.25;;;4.20;70.40;;;;;;6278905;22;20386;-80
2022/01/20 09:06:37;;;;;;;17.20;2.63;;;4.20;70.40;;;;;;6278877;22;20493;-79
2022/01/20 09:09:03;;;;;;;15.77;2.75;;;4.50;70.40;;;;;;6278066;22;20016;-80
2022/01/20 09:11:36;;;;;;;15.43;3.20;;;4.40;70.00;;;;;;6278458;22;20035;-80
2022/01/20 09:16:47;;;;;;;14.18;3.17;;;4.50;70.20;;;;;;6251406;22;20020;-80
2022/01/20 09:19:13;;;;;;;16.08;3.88;;;4.60;69.80;;;;;;6278002;22;20027;-80
2022/01/20 09:21:39;;;;;;;16.38;2.92;;;4.70;69.70;;;;;;6278851;22;20134;-80
2022/01/20 09:24:06;;;;;;;15.80;2.95;;;4.80;69.60;;;;;;6278473;22;20351;-80
2022/01/20 09:26:32;;;;;;;17.40;2.80;;;4.90;69.20;;;;;;6251142;22;20019;-80
2022/01/20 09:28:58;;;;;;;18.40;2.53;;;5.00;69.00;;;;;;6278692;22;20439;-80
2022/01/20 09:31:25;;;;;;;18.27;2.95;;;5.10;68.60;;;;;;6278246;22;20368;-80
2022/01/20 09:33:53;;;;;;;18.48;3.50;;;5.20;68.60;;;;;;6250817;22;20019;-80
2022/01/20 09:36:20;;;;;;;13.15;2.92;;;5.30;68.30;;;;;;6251141;22;20050;-80
2022/01/20 09:38:46;;;;;;;13.48;2.40;;;5.30;68.30;;;;;;6250894;22;20344;-80
2022/01/20 09:41:12;;;;;;;13.55;2.72;;;5.30;68.10;;;;;;6278057;22;20016;-80
2022/01/20 09:43:38;;;;;;;12.85;2.75;;;5.60;68.30;;;;;;6278440;22;20043;-80
2022/01/20 09:46:03;;;;;;;10.50;2.00;;;5.30;68.30;;;;;;6278018;22;20442;-80
2022/01/20 09:48:31;;;;;;;11.50;2.33;;;5.30;68.30;;;;;;6278260;22;20011;-80
2022/01/20 09:51:00;;;;;;;11.98;2.13;;;5.30;68.20;;;;;;6250966;22;20019;-80
2022/01/20 09:53:27;;;;;;;14.82;2.40;;;5.30;68.30;;;;;;6277950;22;20073;-80
2022/01/20 09:55:53;;;;;;;15.45;3.08;;;5.70;68.60;;;;;;6277944;22;20565;-80
2022/01/20 09:58:18;;;;;;;13.80;3.00;;;5.30;68.50;;;;;;6250949;22;20016;-80
2022/01/20 10:00:46;;;;;;;8.75;2.67;;;5.40;68.50;;;;;;6276487;22;20087;-80
2022/01/20 10:03:15;;;;;;;10.88;2.28;;;5.40;68.60;;;;;;6250616;22;20095;-80
2022/01/20 10:05:40;;;;;;;15.00;2.80;;;5.40;68.60;;;;;;6277730;22;20458;-79
2022/01/20 10:08:27;;;;;;;17.35;4.22;;;5.50;68.60;;;;;;6250432;22;20019;-79
2022/01/20 10:11:03;;;;;;;13.70;3.28;;;5.50;68.70;;;;;;6278130;22;20023;-79
2022/01/20 10:13:35;;;;;;;10.43;2.20;;;5.50;68.90;;;;;;6277244;22;20015;-78
2022/01/20 10:16:16;;;;;;;12.55;2.88;;;5.50;68.80;;;;;;6278230;22;20047;-79
2022/01/20 10:19:00;;;;;;;12.23;2.25;;;5.60;68.40;;;;;;6293523;22;20042;-80
2022/01/20 10:21:32;;;;;;;13.18;2.97;;;5.60;68.20;;;;;;6295986;22;20063;-80
2022/01/20 10:24:09;;;;;;;17.15;2.88;;;5.70;68.20;;;;;;6285592;22;20016;-80
2022/01/20 10:26:35;;;;;;;11.90;2.20;;;5.70;67.90;;;;;;6250604;22;20019;-79
2022/01/20 10:29:08;;;;;;;12.07;2.42;;;5.70;67.30;;;;;;6277974;22;20007;-79
2022/01/20 10:31:37;;;;;;;9.07;2.05;;;5.80;67.00;;;;;;6278091;22;20012;-80
2022/01/20 10:34:06;;;;;;;10.77;1.98;;;5.90;67.30;;;;;;6278040;22;20016;-80
2022/01/20 10:36:38;;;;;;;13.35;1.83;;;5.80;67.20;;;;;;6277787;22;20094;-80
2022/01/20 10:39:04;;;;;;;16.67;2.88;;;5.80;66.90;;;;;;6277293;22;20020;-80
2022/01/20 10:41:36;;;;;;;11.45;1.75;;;5.90;66.80;;;;;;6277869;22;20431;-79
2022/01/20 10:44:06;;;;;;;9.57;1.88;;;6.40;66.60;;;;;;6250258;22;20023;-79
2022/01/20 10:46:49;;;;;;;14.75;2.78;;;5.90;65.90;;;;;;6277818;22;20047;-79
2022/01/20 10:49:15;;;;;;;11.43;2.17;;;6.00;65.30;;;;;;6277511;22;20060;-79
2022/01/20 10:51:42;;;;;;;15.00;2.30;;;6.10;65.60;;;;;;6277755;22;20035;-79
2022/01/20 10:54:13;;;;;;;12.85;2.30;;;6.00;65.40;;;;;;6277592;22;20019;-79
2022/01/20 10:56:54;;;;;;;18.13;2.72;;;6.00;65.70;;;;;;6250363;22;20026;-79
2022/01/20 10:59:21;;;;;;;7.82;1.88;;;6.00;65.80;;;;;;6250007;22;20038;-79
2022/01/20 11:01:57;;;;;;;10.68;2.40;;;6.00;65.80;;;;;;6276160;22;20012;-79
2022/01/20 11:04:23;;;;;;;9.90;2.35;;;6.00;65.40;;;;;;6250440;22;20016;-79
2022/01/20 11:06:54;;;;;;;10.52;2.15;;;6.00;65.90;;;;;;6277585;22;20083;-79
2022/01/20 11:09:21;;;;;;;13.77;2.78;;;5.90;66.40;;;;;;6277306;22;20466;-79
2022/01/20 11:11:48;;;;;;;11.85;2.38;;;5.90;66.60;;;;;;6275804;22;20346;-79
2022/01/20 11:14:15;;;;;;;13.48;2.70;;;5.90;66.70;;;;;;6277443;22;20316;-79
2022/01/20 11:16:41;;;;;;;13.52;2.65;;;6.10;67.10;;;;;;6277527;22;20023;-79
2022/01/20 11:19:18;;;;;;;18.15;3.38;;;5.90;67.10;;;;;;6277216;22;20015;-79
2022/01/20 11:21:45;;;;;;;7.75;1.63;;;5.90;67.20;;;;;;6249909;22;20455;-79
2022/01/20 11:24:25;;;;;;;10.30;2.72;;;5.80;67.20;;;;;;6277707;22;20026;-79
2022/01/20 11:26:56;;;;;;;8.90;1.85;;;5.80;67.10;;;;;;6250319;22;20381;-79
2022/01/20 11:29:25;;;;;;;10.60;2.13;;;5.80;67.40;;;;;;6277208;22;20011;-79
2022/01/20 11:31:52;;;;;;;12.90;2.42;;;5.70;67.10;;;;;;6277303;22;20020;-79
2022/01/20 11:34:20;;;;;;;11.05;1.83;;;5.70;67.20;;;;;;6250359;22;20019;-79
2022/01/20 11:36:48;;;;;;;14.73;2.53;;;5.70;67.00;;;;;;6277421;22;20091;-79
2022/01/20 11:39:14;;;;;;;12.13;2.10;;;5.70;66.70;;;;;;6277046;22;20051;-79
2022/01/20 11:41:47;;;;;;;8.48;2.08;;;5.90;66.70;;;;;;6277488;22;20106;-79
2022/01/20 11:44:17;;;;;;;15.77;2.60;;;5.60;66.50;;;;;;6277054;22;20043;-79
2022/01/20 11:46:45;;;;;;;18.02;2.58;;;5.60;66.70;;;;;;6249710;22;20019;-79
2022/01/20 11:49:17;;;;;;;13.25;2.40;;;5.60;66.70;;;;;;6278087;22;20023;-79
2022/01/20 11:51:52;;;;;;;12.20;2.55;;;5.60;66.80;;;;;;6279553;22;20011;-79
2022/01/20 11:54:28;;;;;;;9.95;2.10;;;5.60;66.70;;;;;;6279691;22;20026;-79
2022/01/20 11:57:30;;;;;;;12.05;2.22;;;5.60;66.90;;;;;;6252117;22;20054;-79
2022/01/20 12:00:15;;;;;;;11.65;2.80;;;5.60;67.20;;;;;;6155388;23;20361;-79
2022/01/20 12:02:40;;;;;;;8.35;1.70;;;5.60;67.70;;;;;;6155661;23;20033;-78
2022/01/20 12:05:18;;;;;;;12.13;2.00;;;5.50;68.00;;;;;;6155791;23;20013;-79
2022/01/20 12:07:44;;;;;;;6.70;1.45;;;5.40;68.40;;;;;;6155284;23;20024;-79
2022/01/20 12:10:15;;;;;;;11.90;1.90;;;5.40;68.60;;;;;;6155459;23;20018;-79
2022/01/20 12:12:41;;;;;;;8.30;1.23;;;5.30;68.80;;;;;;6155320;23;20064;-79
2022/01/20 12:15:20;;;;;;;15.18;2.20;;;5.30;68.80;;;;;;6155571;23;20018;-79
2022/01/20 12:17:54;;;;;;;15.05;2.90;;;5.20;68.90;;;;;;6155658;23;20022;-79
2022/01/20 12:20:21;;;;;;;10.38;2.95;;;5.20;69.30;;;;;;6155684;23;20030;-79
2022/01/20 12:22:47;;;;;;;11.60;2.53;;;5.10;69.90;;;;;;6155309;23;20454;-79
2022/01/20 12:25:27;;;;;;;13.48;2.25;;;5.20;69.70;;;;;;6155667;23;20097;-79
2022/01/20 12:28:10;;;;;;;13.02;2.55;;;5.30;70.00;;;;;;6155353;23;20378;-80
2022/01/20 12:30:40;;;;;;;17.80;2.95;;;5.30;70.10;;;;;;6155575;23;20022;-79
2022/01/20 12:33:12;;;;;;;10.43;1.92;;;5.10;70.00;;;;;;6130652;23;20386;-79
2022/01/20 12:35:53;;;;;;;15.93;2.85;;;5.10;70.20;;;;;;6188854;22;20023;-79
2022/01/20 12:38:28;;;;;;;13.88;2.63;;;5.10;70.70;;;;;;6278841;22;20038;-79
2022/01/20 12:41:18;;;;;;;17.17;2.88;;;5.10;70.30;;;;;;6251667;22;20011;-79
2022/01/20 12:43:54;;;;;;;18.40;3.05;;;5.20;70.20;;;;;;6278469;22;20020;-79
2022/01/20 12:46:36;;;;;;;15.77;3.47;;;5.20;70.20;;;;;;6279084;22;20018;-79
2022/01/20 12:49:07;;;;;;;14.20;4.07;;;5.20;70.10;;;;;;6278813;22;20431;-79
2022/01/20 12:51:39;;;;;;;15.40;2.90;;;5.20;70.20;;;;;;6278720;22;20015;-80
2022/01/20 12:54:18;;;;;;;13.38;2.78;;;5.20;70.10;;;;;;6278651;22;20016;-79
2022/01/20 12:56:46;;;;;;;19.33;3.17;;;5.20;70.20;;;;;;6278635;22;20016;-79
2022/01/20 12:59:27;;;;;;;17.80;2.67;;;5.20;70.00;;;;;;6278563;22;20134;-79
2022/01/20 13:01:56;;;;;;;13.73;2.20;;;5.30;70.20;;;;;;6278347;22;20073;-78
2022/01/20 13:04:24;;;;;;;13.05;2.72;;;5.30;70.80;;;;;;6278563;22;20013;-79
2022/01/20 13:06:55;;;;;;;16.40;2.75;;;5.30;70.30;;;;;;6251978;22;20529;-79
2022/01/20 13:09:24;;;;;;;17.42;2.72;;;5.30;70.20;;;;;;6250744;22;20175;-79
2022/01/20 13:11:56;;;;;;;14.48;3.28;;;5.30;70.20;;;;;;6276609;22;20073;-78
2022/01/20 13:14:43;;;;;;;14.30;3.08;;;5.30;70.30;;;;;;6278263;22;20115;-79
2022/01/20 13:17:12;;;;;;;15.75;2.75;;;5.30;70.00;;;;;;6278815;22;20012;-78
2022/01/20 13:19:45;;;;;;;11.73;2.63;;;5.60;69.60;;;;;;6251247;22;20016;-79
2022/01/20 13:22:43;;;;;;;14.77;3.53;;;5.20;69.10;;;;;;6278434;22;20031;-78
2022/01/20 13:25:14;;;;;;;15.30;2.78;;;5.20;69.00;;;;;;6251237;22;20062;-79
2022/01/20 13:27:56;;;;;;;11.35;2.20;;;5.20;69.10;;;;;;6278814;22;20054;-79
2022/01/20 13:30:48;;;;;;;12.88;2.40;;;5.20;69.00;;;;;;6278211;22;20026;-79
2022/01/20 13:33:17;;;;;;;13.60;2.78;;;5.20;69.10;;;;;;6154893;23;20056;-78
2022/01/20 13:35:46;;;;;;;15.75;3.92;;;5.20;69.30;;;;;;6129914;23;20021;-79
2022/01/20 13:38:12;;;;;;;10.95;2.60;;;5.20;69.30;;;;;;6154835;23;20017;-79
2022/01/20 13:40:43;;;;;;;13.27;2.90;;;5.20;69.20;;;;;;6154679;23;20056;-78
2022/01/20 13:45:55;;;;;;;13.93;2.90;;;5.10;68.90;;;;;;6154575;23;20018;-83
2022/01/20 13:48:32;;;;;;;13.80;2.80;;;5.10;68.80;;;;;;6129038;23;20024;-87
2022/01/20 13:51:00;;;;;;;16.00;2.88;;;5.10;68.80;;;;;;6129562;23;20020;-82
2022/01/20 13:53:28;;;;;;;10.73;2.50;;;5.10;68.80;;;;;;6153972;23;20100;-82
2022/01/20 13:55:58;;;;;;;16.17;3.75;;;5.10;68.90;;;;;;6130018;23;20408;-81
2022/01/20 13:58:26;;;;;;;13.57;2.15;;;5.40;69.20;;;;;;6130015;23;20315;-82
2022/01/20 14:00:52;;;;;;;8.40;1.95;;;5.10;69.10;;;;;;6154301;23;20018;-83
2022/01/20 14:03:19;;;;;;;12.57;2.75;;;5.10;69.20;;;;;;6129326;23;20025;-82
2022/01/20 14:05:45;;;;;;;10.85;1.67;;;5.10;69.00;;;;;;6130725;23;20553;-82